Time;durP1;ratioP1;P1;durP2;ratioP2;P2;SDS_P1;SDS_P2;PMS_P1;PMS_P2;Temp;Humidity;BMP_temperature;BMP_pressure;BME280_temperature;BME280_humidity;BME280_pressure;Samples;Min_cycle;Max_cycle;Signal;HPM_P1;HPM_P2
2023/10/24 00:01:17;;;;;;;7.77;6.07;;;;;;;11.22;100.00;97284.25;5092546;28;20241;-79
2023/10/24 00:03:44;;;;;;;7.43;6.03;;;;;;;11.24;100.00;97266.44;5092148;28;20230;-80
2023/10/24 00:06:10;;;;;;;7.57;6.23;;;;;;;11.30;100.00;97271.22;5092822;28;20696;-79
2023/10/24 00:08:37;;;;;;;8.13;6.33;;;;;;;11.29;100.00;97256.31;5096061;28;20217;-79
2023/10/24 00:11:06;;;;;;;6.57;5.57;;;;;;;11.30;100.00;97244.75;5096703;28;20604;-79
2023/10/24 00:13:32;;;;;;;7.90;6.10;;;;;;;11.26;100.00;97232.78;5095722;28;20213;-79
2023/10/24 00:15:59;;;;;;;8.60;6.33;;;;;;;11.23;100.00;97246.25;5095969;28;20215;-79
2023/10/24 00:18:26;;;;;;;8.33;6.30;;;;;;;11.20;100.00;97249.19;5096272;28;20202;-79
2023/10/24 00:20:53;;;;;;;6.93;5.57;;;;;;;11.17;100.00;97254.72;5096010;28;20227;-79
2023/10/24 00:23:20;;;;;;;8.50;6.40;;;;;;;11.18;100.00;97251.97;5095759;28;20209;-80
2023/10/24 00:25:46;;;;;;;6.87;5.90;;;;;;;11.19;100.00;97250.97;5096125;28;20261;-79
2023/10/24 00:28:14;;;;;;;7.97;6.50;;;;;;;11.18;100.00;97259.06;5095862;28;20214;-79
2023/10/24 00:30:41;;;;;;;8.17;6.10;;;;;;;11.18;100.00;97267.00;5095970;28;20203;-79
2023/10/24 00:33:07;;;;;;;8.70;6.40;;;;;;;11.19;100.00;97274.78;5095694;28;20213;-79
2023/10/24 00:35:34;;;;;;;9.57;6.47;;;;;;;11.18;100.00;97277.59;5096070;28;20209;-79
2023/10/24 00:38:01;;;;;;;7.43;6.50;;;;;;;11.20;100.00;97281.75;5098438;28;20502;-79
2023/10/24 00:40:27;;;;;;;8.40;6.10;;;;;;;11.24;100.00;97277.88;5099372;28;20214;-79
2023/10/24 00:42:54;;;;;;;7.60;6.10;;;;;;;11.24;100.00;97287.59;5099519;28;20231;-79
2023/10/24 00:45:21;;;;;;;7.73;5.67;;;;;;;11.29;100.00;97285.41;5097760;28;20225;-79
2023/10/24 00:47:48;;;;;;;8.43;5.50;;;;;;;11.29;100.00;97280.13;5097379;28;20206;-80
2023/10/24 00:50:15;;;;;;;6.37;5.53;;;;;;;11.30;100.00;97277.34;5096555;28;20209;-80
2023/10/24 00:52:43;;;;;;;6.90;5.80;;;;;;;11.32;100.00;97270.13;5096133;28;20223;-79
2023/10/24 00:55:11;;;;;;;6.47;5.40;;;;;;;11.33;100.00;97273.63;5096693;28;20214;-79
2023/10/24 00:57:38;;;;;;;9.33;6.00;;;;;;;11.33;100.00;97270.97;5096488;28;20209;-79
2023/10/24 01:00:06;;;;;;;8.83;5.93;;;;;;;11.37;100.00;97275.03;5095643;28;20210;-80
2023/10/24 01:02:34;;;;;;;6.07;5.40;;;;;;;11.33;100.00;97261.25;5095629;28;20227;-79
2023/10/24 01:05:03;;;;;;;9.07;5.70;;;;;;;11.35;100.00;97263.72;5096427;28;20230;-79
2023/10/24 01:07:30;;;;;;;7.43;5.40;;;;;;;11.34;100.00;97262.91;5095958;28;20730;-79
2023/10/24 01:09:57;;;;;;;6.67;5.43;;;;;;;11.35;100.00;97253.16;5096208;28;20211;-80
2023/10/24 01:12:23;;;;;;;6.67;5.77;;;;;;;11.38;100.00;97252.91;5094959;28;20581;-79
2023/10/24 01:14:50;;;;;;;7.37;5.57;;;;;;;11.39;100.00;97259.88;5096243;28;20576;-80
2023/10/24 01:17:17;;;;;;;6.93;5.67;;;;;;;11.40;100.00;97257.09;5095884;28;20241;-80
2023/10/24 01:19:45;;;;;;;5.93;5.33;;;;;;;11.42;100.00;97243.72;5094967;28;20301;-81
2023/10/24 01:22:13;;;;;;;5.13;4.60;;;;;;;11.45;100.00;97238.16;5095032;28;20226;-80
2023/10/24 01:24:41;;;;;;;6.63;5.43;;;;;;;11.45;100.00;97233.72;5095457;28;20233;-80
2023/10/24 01:27:08;;;;;;;6.10;4.77;;;;;;;11.44;100.00;97231.22;5095624;28;20249;-80
2023/10/24 01:29:35;;;;;;;7.37;5.10;;;;;;;11.44;100.00;97231.22;5095486;28;20211;-80
2023/10/24 01:32:01;;;;;;;6.60;5.00;;;;;;;11.45;100.00;97233.72;5095418;28;20260;-80
2023/10/24 01:34:28;;;;;;;7.77;5.67;;;;;;;11.43;100.00;97235.66;5095107;28;20669;-80
2023/10/24 01:36:54;;;;;;;7.50;6.00;;;;;;;11.53;100.00;97236.53;5095070;28;20209;-80
2023/10/24 01:39:23;;;;;;;5.93;4.90;;;;;;;11.54;100.00;97238.19;5095249;28;20248;-80
2023/10/24 01:41:49;;;;;;;6.77;5.60;;;;;;;11.55;100.00;97241.69;5094856;28;20793;-80
2023/10/24 01:44:16;;;;;;;7.27;5.40;;;;;;;11.58;100.00;97228.19;5094521;28;20598;-80
2023/10/24 01:46:42;;;;;;;6.27;5.00;;;;;;;11.60;100.00;97231.56;5094895;28;20210;-80
2023/10/24 01:49:09;;;;;;;6.63;5.20;;;;;;;11.61;100.00;97230.63;5094985;28;20211;-80
2023/10/24 01:51:35;;;;;;;6.33;5.73;;;;;;;11.60;100.00;97228.91;5094774;28;20240;-81
2023/10/24 01:54:02;;;;;;;6.13;5.17;;;;;;;11.58;100.00;97217.59;5094422;28;20386;-78
2023/10/24 01:56:30;;;;;;;7.17;5.30;;;;;;;11.54;100.00;97216.19;5094900;28;20218;-78
2023/10/24 01:58:56;;;;;;;7.10;5.10;;;;;;;11.55;100.00;97217.88;5094826;28;20228;-78
2023/10/24 02:01:23;;;;;;;7.80;5.40;;;;;;;11.52;100.00;97223.44;5094938;28;20633;-81
2023/10/24 02:03:49;;;;;;;6.43;4.90;;;;;;;11.52;100.00;97218.13;5094956;28;20210;-79
2023/10/24 02:06:16;;;;;;;7.43;5.17;;;;;;;11.50;100.00;97225.38;5094825;28;20233;-81
2023/10/24 02:08:43;;;;;;;6.17;5.20;;;;;;;11.47;100.00;97218.53;5095182;28;20237;-81
2023/10/24 02:11:09;;;;;;;6.40;5.17;;;;;;;11.50;100.00;97220.91;5095070;28;20237;-79
2023/10/24 02:13:37;;;;;;;8.30;5.77;;;;;;;11.50;100.00;97230.66;5094383;28;20680;-79
2023/10/24 02:16:04;;;;;;;6.70;5.67;;;;;;;11.53;100.00;97231.25;5094940;28;20213;-79
2023/10/24 02:18:30;;;;;;;7.63;5.43;;;;;;;11.56;100.00;97233.59;5095177;28;20218;-79
2023/10/24 02:20:57;;;;;;;5.93;5.23;;;;;;;11.54;100.00;97243.50;5094894;28;20227;-79
2023/10/24 02:23:23;;;;;;;6.73;5.60;;;;;;;11.56;100.00;97238.91;5094653;28;20217;-79
2023/10/24 02:25:50;;;;;;;7.23;5.83;;;;;;;11.59;100.00;97240.47;5094364;28;20230;-79
2023/10/24 02:28:16;;;;;;;7.13;6.10;;;;;;;11.61;100.00;97243.84;5094812;28;20224;-79
2023/10/24 02:30:44;;;;;;;6.47;5.30;;;;;;;11.60;100.00;97242.16;5094058;28;20216;-79
2023/10/24 02:33:10;;;;;;;6.83;5.70;;;;;;;11.61;100.00;97231.44;5093628;28;20214;-79
2023/10/24 02:35:37;;;;;;;7.17;5.90;;;;;;;11.62;100.00;97240.22;5094346;28;20201;-81
2023/10/24 02:38:03;;;;;;;7.73;6.37;;;;;;;11.60;100.00;97236.84;5094233;28;20221;-79
2023/10/24 02:40:30;;;;;;;6.97;5.27;;;;;;;11.61;100.00;97222.69;5094095;28;20695;-79
2023/10/24 02:42:56;;;;;;;6.90;5.33;;;;;;;11.58;100.00;97217.59;5093273;28;20206;-79
2023/10/24 02:45:23;;;;;;;7.07;5.83;;;;;;;11.62;100.00;97216.41;5094177;28;20238;-81
2023/10/24 02:47:52;;;;;;;7.43;5.97;;;;;;;11.67;100.00;97216.84;5094067;28;20207;-79
2023/10/24 02:50:18;;;;;;;10.50;6.00;;;;;;;11.68;100.00;97218.50;5094952;28;20207;-81
2023/10/24 02:52:45;;;;;;;7.63;5.40;;;;;;;11.66;100.00;97225.72;5098645;28;20227;-79
2023/10/24 02:55:12;;;;;;;5.93;5.33;;;;;;;11.74;100.00;97226.72;5095240;28;20234;-79
2023/10/24 02:57:38;;;;;;;6.13;4.93;;;;;;;11.78;100.00;97235.25;5094471;28;20589;-79
2023/10/24 03:00:06;;;;;;;5.70;4.80;;;;;;;11.77;100.00;97239.72;5094253;28;20212;-80
2023/10/24 03:02:33;;;;;;;9.80;5.23;;;;;;;11.79;100.00;97247.53;5093731;28;20233;-79
2023/10/24 03:05:00;;;;;;;6.57;4.93;;;;;;;11.77;100.00;97238.88;5094077;28;20233;-80
2023/10/24 03:07:28;;;;;;;7.77;5.17;;;;;;;11.77;100.00;97246.81;5094136;28;20217;-79
2023/10/24 03:09:54;;;;;;;6.30;5.47;;;;;;;11.76;100.00;97253.09;5094100;28;20215;-79
2023/10/24 03:12:21;;;;;;;6.67;5.13;;;;;;;11.77;100.00;97242.38;5092932;28;20246;-80
2023/10/24 03:14:47;;;;;;;8.20;5.67;;;;;;;11.81;100.00;97238.44;5093863;28;20576;-79
2023/10/24 03:17:14;;;;;;;7.67;5.30;;;;;;;11.79;100.00;97237.75;5093265;28;20218;-79
2023/10/24 03:19:40;;;;;;;5.77;4.90;;;;;;;11.79;100.00;97242.25;5093186;28;20212;-80
2023/10/24 03:22:08;;;;;;;6.77;4.93;;;;;;;11.79;100.00;97231.66;5092448;28;20230;-80
2023/10/24 03:24:34;;;;;;;6.83;5.00;;;;;;;11.80;100.00;97225.38;5093254;28;20756;-79
2023/10/24 03:27:01;;;;;;;7.07;5.33;;;;;;;11.87;100.00;97229.16;5093245;28;20695;-79
2023/10/24 03:29:27;;;;;;;7.00;5.00;;;;;;;11.80;100.00;97217.44;5093266;28;20209;-79
2023/10/24 03:31:54;;;;;;;6.80;4.93;;;;;;;11.77;100.00;97215.03;5093745;28;20288;-80
2023/10/24 03:34:20;;;;;;;6.53;5.17;;;;;;;11.76;100.00;97216.03;5092945;28;20222;-80
2023/10/24 03:36:47;;;;;;;6.33;5.47;;;;;;;11.79;100.00;97206.00;5093311;28;20554;-80
2023/10/24 03:39:15;;;;;;;8.33;5.53;;;;;;;11.77;100.00;97197.38;5092750;28;20213;-80
2023/10/24 03:41:41;;;;;;;5.83;5.07;;;;;;;11.81;100.00;97209.34;5092278;28;20231;-80
2023/10/24 03:44:08;;;;;;;6.20;5.17;;;;;;;11.80;100.00;97206.84;5092352;28;20215;-82
2023/10/24 03:46:34;;;;;;;7.83;4.63;;;;;;;11.85;100.00;97194.00;5093141;28;20283;-81
2023/10/24 03:49:01;;;;;;;6.80;5.07;;;;;;;11.86;100.00;97174.53;5092799;28;20221;-81
2023/10/24 03:51:27;;;;;;;5.77;4.97;;;;;;;11.84;100.00;97171.16;5092525;28;20705;-81
2023/10/24 03:53:54;;;;;;;7.07;5.87;;;;;;;11.85;100.00;97172.84;5092032;28;20221;-81
2023/10/24 03:56:22;;;;;;;6.50;5.23;;;;;;;11.93;100.00;97171.19;5092985;28;20213;-81
2023/10/24 03:58:48;;;;;;;7.73;5.60;;;;;;;11.99;100.00;97164.50;5092405;28;20584;-81
2023/10/24 04:01:15;;;;;;;5.73;5.07;;;;;;;12.17;100.00;97161.03;5092813;28;20225;-81
2023/10/24 04:03:42;;;;;;;8.27;4.73;;;;;;;12.22;100.00;97165.94;5092035;28;20216;-81
2023/10/24 04:06:15;;;;;;;7.27;4.90;;;;;;;12.17;100.00;97161.03;5093198;28;20553;-81
2023/10/24 04:08:42;;;;;;;7.73;4.83;;;;;;;11.98;100.00;97168.13;5092537;28;20290;-81
2023/10/24 04:11:14;;;;;;;5.93;5.00;;;;;;;11.88;100.00;97167.28;5092489;28;20605;-81
2023/10/24 04:13:41;;;;;;;6.87;5.03;;;;;;;11.81;100.00;97168.81;5092571;28;20207;-81
2023/10/24 04:16:08;;;;;;;7.20;5.30;;;;;;;11.73;100.00;97176.59;5092708;28;20229;-81
2023/10/24 04:18:34;;;;;;;5.23;4.63;;;;;;;11.66;100.00;97178.09;5092798;28;20232;-81
2023/10/24 04:21:01;;;;;;;6.07;4.93;;;;;;;11.58;100.00;97180.56;5092166;28;20232;-81
2023/10/24 04:23:28;;;;;;;6.43;5.13;;;;;;;11.57;100.00;97170.94;5091873;28;20210;-81
2023/10/24 04:25:54;;;;;;;6.43;4.53;;;;;;;11.61;100.00;97169.75;5092353;28;20241;-81
2023/10/24 04:28:21;;;;;;;5.80;4.63;;;;;;;11.62;100.00;97168.78;5092901;28;20229;-81
2023/10/24 04:30:51;;;;;;;8.80;4.80;;;;;;;11.61;100.00;97172.41;5092407;28;20216;-81
2023/10/24 04:33:18;;;;;;;6.57;4.53;;;;;;;11.58;100.00;97172.63;5091742;28;20216;-81
2023/10/24 04:35:47;;;;;;;5.40;4.83;;;;;;;11.62;100.00;97171.41;5092383;28;20211;-81
2023/10/24 04:38:13;;;;;;;5.60;5.03;;;;;;;11.58;100.00;97180.56;5092418;28;20266;-81
2023/10/24 04:40:40;;;;;;;6.43;5.17;;;;;;;11.56;100.00;97177.22;5092025;28;20221;-82
2023/10/24 04:43:07;;;;;;;5.53;4.83;;;;;;;11.55;100.00;97173.72;5091704;28;20217;-81
2023/10/24 04:45:34;;;;;;;7.43;5.23;;;;;;;11.56;100.00;97190.44;5092313;28;20226;-81
2023/10/24 04:48:02;;;;;;;8.50;5.70;;;;;;;11.57;100.00;97182.34;5092367;28;20666;-81
2023/10/24 04:50:28;;;;;;;5.00;4.50;;;;;;;11.57;100.00;97173.59;5092105;28;20214;-81
2023/10/24 04:52:55;;;;;;;6.50;4.47;;;;;;;11.56;100.00;97171.91;5091859;28;20215;-81
2023/10/24 04:55:22;;;;;;;6.30;4.90;;;;;;;11.58;100.00;97169.97;5099236;28;20623;-81
2023/10/24 04:57:50;;;;;;;5.53;4.67;;;;;;;11.57;100.00;97160.34;5103346;28;20213;-81
2023/10/24 05:00:17;;;;;;;7.20;5.50;;;;;;;11.60;100.00;97162.75;5102752;28;20655;-81
2023/10/24 05:02:45;;;;;;;6.40;4.80;;;;;;;11.58;100.00;97159.38;5097676;28;20246;-81
2023/10/24 05:05:12;;;;;;;7.77;4.53;;;;;;;11.57;100.00;97160.34;5096483;28;20211;-81
2023/10/24 05:07:39;;;;;;;6.70;5.23;;;;;;;11.54;100.00;97164.13;5096305;28;20229;-81
2023/10/24 05:10:06;;;;;;;6.33;5.00;;;;;;;11.55;100.00;97162.31;5096227;28;20230;-81
2023/10/24 05:12:33;;;;;;;6.30;4.80;;;;;;;11.52;100.00;97154.63;5095049;28;20234;-81
2023/10/24 05:14:59;;;;;;;5.63;4.53;;;;;;;11.52;100.00;97146.69;5095554;28;20206;-81
2023/10/24 05:17:26;;;;;;;5.37;4.80;;;;;;;11.48;100.00;97137.34;5095926;28;20267;-81
2023/10/24 05:19:53;;;;;;;6.37;5.13;;;;;;;11.44;100.00;97142.06;5095954;28;20213;-81
2023/10/24 05:22:21;;;;;;;6.10;5.03;;;;;;;11.41;100.00;97138.84;5094755;28;20226;-81
2023/10/24 05:24:47;;;;;;;5.67;5.03;;;;;;;11.44;100.00;97130.66;5095532;28;20237;-81
2023/10/24 05:27:14;;;;;;;5.03;4.30;;;;;;;11.46;100.00;97123.41;5095315;28;20700;-81
2023/10/24 05:29:42;;;;;;;7.27;5.00;;;;;;;11.49;100.00;97107.28;5096112;28;20204;-82
2023/10/24 05:32:09;;;;;;;5.90;4.53;;;;;;;11.52;100.00;97110.50;5094900;28;20240;-80
2023/10/24 05:34:35;;;;;;;5.30;4.80;;;;;;;11.53;100.00;97122.75;5095514;28;20206;-80
2023/10/24 05:37:01;;;;;;;5.90;5.07;;;;;;;11.59;100.00;97124.03;5095055;28;20217;-80
2023/10/24 05:39:30;;;;;;;6.10;5.10;;;;;;;11.58;100.00;97125.88;5095060;28;20210;-81
2023/10/24 05:41:57;;;;;;;5.63;5.13;;;;;;;11.57;100.00;97123.31;5094997;28;20661;-81
2023/10/24 05:44:24;;;;;;;7.03;4.87;;;;;;;11.59;100.00;97124.03;5094521;28;20203;-81
2023/10/24 05:46:50;;;;;;;8.50;5.07;;;;;;;11.55;100.00;97118.16;5095154;28;20226;-81
2023/10/24 05:49:17;;;;;;;6.73;5.20;;;;;;;11.54;100.00;97112.97;5095163;28;20582;-81
2023/10/24 05:51:43;;;;;;;8.43;5.50;;;;;;;11.56;100.00;97111.06;5095063;28;20326;-81
2023/10/24 05:54:10;;;;;;;5.53;4.70;;;;;;;11.53;100.00;97108.66;5094846;28;20581;-81
2023/10/24 05:56:38;;;;;;;6.20;4.90;;;;;;;11.52;100.00;97113.16;5094913;28;20199;-81
2023/10/24 05:59:04;;;;;;;5.13;4.20;;;;;;;11.52;100.00;97113.16;5094867;28;20211;-81
2023/10/24 06:01:31;;;;;;;5.87;4.83;;;;;;;11.48;100.00;97110.88;5094731;28;20736;-81
2023/10/24 06:03:57;;;;;;;5.10;4.60;;;;;;;11.44;100.00;97104.22;5094288;28;20202;-81
2023/10/24 06:06:24;;;;;;;7.47;5.07;;;;;;;11.46;100.00;97104.91;5094617;28;20231;-81
2023/10/24 06:08:50;;;;;;;6.67;4.93;;;;;;;11.46;100.00;97099.59;5094713;28;20577;-81
2023/10/24 06:11:17;;;;;;;6.80;5.30;;;;;;;11.46;100.00;97096.97;5094824;28;20250;-81
2023/10/24 06:13:45;;;;;;;6.90;5.50;;;;;;;11.49;100.00;97112.59;5094405;28;20629;-81
2023/10/24 06:16:14;;;;;;;8.93;5.90;;;;;;;11.49;100.00;97109.94;5094759;28;20207;-81
2023/10/24 06:18:40;;;;;;;7.87;5.63;;;;;;;11.51;100.00;97107.97;5095251;28;20214;-81
2023/10/24 06:21:08;;;;;;;6.33;5.10;;;;;;;11.53;100.00;97116.59;5096331;28;20231;-81
2023/10/24 06:23:35;;;;;;;6.40;5.10;;;;;;;11.53;100.00;97113.97;5094995;28;20232;-80
2023/10/24 06:26:02;;;;;;;6.47;5.50;;;;;;;11.58;100.00;97133.81;5095116;28;20249;-81
2023/10/24 06:28:28;;;;;;;7.97;5.13;;;;;;;11.55;100.00;97119.97;5097557;28;20207;-81
2023/10/24 06:31:00;;;;;;;6.57;5.43;;;;;;;11.54;100.00;97136.78;5097139;28;20233;-81
2023/10/24 06:33:29;;;;;;;6.70;5.67;;;;;;;11.53;100.00;97135.97;5095830;28;20207;-81
2023/10/24 06:35:58;;;;;;;7.80;5.23;;;;;;;11.52;100.00;97134.31;5096275;28;20619;-81
2023/10/24 06:38:25;;;;;;;6.23;5.03;;;;;;;11.55;100.00;97141.16;5095230;28;20592;-81
2023/10/24 06:40:51;;;;;;;7.87;5.67;;;;;;;11.55;100.00;97123.44;5094481;28;20225;-81
2023/10/24 06:43:18;;;;;;;5.83;4.93;;;;;;;11.58;100.00;97124.97;5093568;28;20226;-79
2023/10/24 06:45:45;;;;;;;8.20;6.37;;;;;;;11.56;100.00;97121.66;5094539;28;20238;-79
2023/10/24 06:48:13;;;;;;;6.97;5.67;;;;;;;11.62;100.00;97113.19;5094209;28;20249;-80
2023/10/24 06:50:40;;;;;;;7.00;5.93;;;;;;;11.61;100.00;97117.63;5093536;28;20744;-78
2023/10/24 06:53:06;;;;;;;7.50;6.23;;;;;;;11.61;100.00;97120.28;5094425;28;20676;-79
2023/10/24 06:55:33;;;;;;;8.17;5.33;;;;;;;11.58;100.00;97107.34;5093895;28;20209;-80
2023/10/24 06:58:00;;;;;;;8.57;5.80;;;;;;;11.56;100.00;97119.00;5093849;28;20211;-79
2023/10/24 07:00:28;;;;;;;8.33;6.10;;;;;;;11.58;100.00;97122.34;5093926;28;20296;-79
2023/10/24 07:02:54;;;;;;;8.83;6.00;;;;;;;11.59;100.00;97118.75;5093350;28;20267;-79
2023/10/24 07:05:22;;;;;;;10.23;6.77;;;;;;;11.56;100.00;97119.00;5094105;28;20214;-79
2023/10/24 07:07:49;;;;;;;9.67;6.77;;;;;;;11.54;100.00;97142.09;5094306;28;20714;-79
2023/10/24 07:10:16;;;;;;;10.17;6.63;;;;;;;11.55;100.00;97144.63;5094295;28;20580;-79
2023/10/24 07:12:42;;;;;;;11.47;6.50;;;;;;;11.56;100.00;97141.00;5093206;28;20340;-79
2023/10/24 07:15:09;;;;;;;11.23;6.50;;;;;;;11.58;100.00;97133.81;5093993;28;20206;-79
2023/10/24 07:17:36;;;;;;;8.73;6.70;;;;;;;11.57;100.00;97141.84;5093398;28;20210;-79
2023/10/24 07:20:04;;;;;;;9.70;7.13;;;;;;;11.58;100.00;97132.91;5093438;28;20214;-78
2023/10/24 07:22:32;;;;;;;10.67;7.43;;;;;;;11.55;100.00;97143.78;5092922;28;20289;-77
2023/10/24 07:24:58;;;;;;;9.43;7.13;;;;;;;11.60;100.00;97149.53;5093430;28;20656;-80
2023/10/24 07:27:25;;;;;;;11.87;7.63;;;;;;;11.65;100.00;97139.38;5074807;28;20624;-79
2023/10/24 07:29:51;;;;;;;13.95;7.97;;;;;;;11.61;100.00;97148.56;5092709;28;20432;-79
2023/10/24 07:32:18;;;;;;;12.07;7.17;;;;;;;11.63;100.00;97147.44;5090401;28;20223;-81
2023/10/24 07:34:44;;;;;;;10.20;7.33;;;;;;;11.64;100.00;97148.28;5092305;28;20214;-78
2023/10/24 07:37:11;;;;;;;11.17;7.07;;;;;;;11.67;100.00;97150.69;5092235;28;20668;-79
2023/10/24 07:39:39;;;;;;;10.73;6.90;;;;;;;11.58;100.00;97154.09;5093258;28;20367;-82
2023/10/24 07:42:05;;;;;;;8.27;7.30;;;;;;;11.62;100.00;97142.31;5092603;28;20245;-79
2023/10/24 07:44:32;;;;;;;10.17;7.20;;;;;;;11.60;100.00;97147.72;5093326;28;20226;-79
2023/10/24 07:46:58;;;;;;;10.70;7.47;;;;;;;11.55;100.00;97146.44;5092146;28;20319;-77
2023/10/24 07:49:25;;;;;;;9.63;7.72;;;;;;;11.63;100.00;97149.25;5091957;28;20439;-78
2023/10/24 07:51:51;;;;;;;10.40;7.60;;;;;;;11.49;100.00;97139.03;5092781;28;20226;-79
2023/10/24 07:54:18;;;;;;;11.17;7.07;;;;;;;11.45;100.00;97137.63;5074001;28;20623;-79
2023/10/24 07:56:45;;;;;;;10.43;7.50;;;;;;;11.50;100.00;97141.53;5092248;28;20214;-79
2023/10/24 07:59:12;;;;;;;9.03;7.40;;;;;;;11.46;100.00;97134.00;5093138;28;20722;-79
2023/10/24 08:01:38;;;;;;;9.60;7.37;;;;;;;11.52;100.00;97133.47;5092630;28;20226;-79
2023/10/24 08:04:05;;;;;;;11.80;7.60;;;;;;;11.54;100.00;97137.66;5092060;28;20210;-79
2023/10/24 08:06:32;;;;;;;11.25;8.43;;;;;;;11.59;100.00;97146.06;5092119;28;20456;-79
2023/10/24 08:08:58;;;;;;;10.88;8.77;;;;;;;11.61;100.00;97151.22;5092062;28;20444;-79
2023/10/24 08:11:25;;;;;;;10.77;8.90;;;;;;;11.68;100.00;97136.47;5091365;28;20823;-81
2023/10/24 08:13:53;;;;;;;12.53;9.03;;;;;;;11.69;100.00;97135.50;5092236;28;20210;-81
2023/10/24 08:16:20;;;;;;;12.17;8.60;;;;;;;11.66;100.00;97141.03;5092348;28;20708;-79
2023/10/24 08:18:47;;;;;;;11.97;8.70;;;;;;;11.65;100.00;97145.50;5092482;28;20696;-79
2023/10/24 08:21:13;;;;;;;11.63;8.37;;;;;;;11.64;100.00;97143.84;5092248;28;20222;-79
2023/10/24 08:23:40;;;;;;;10.10;7.57;;;;;;;11.65;100.00;97140.22;5091732;28;20216;-79
2023/10/24 08:26:06;;;;;;;12.23;8.60;;;;;;;11.69;100.00;97138.13;5091496;28;20259;-79
2023/10/24 08:28:33;;;;;;;9.87;8.43;;;;;;;11.74;100.00;97127.97;5094691;28;20580;-79
2023/10/24 08:31:00;;;;;;;10.57;7.80;;;;;;;11.71;100.00;97128.22;5097990;28;20225;-80
2023/10/24 08:33:28;;;;;;;13.00;8.60;;;;;;;11.74;100.00;97127.97;5095626;28;20232;-79
2023/10/24 08:35:54;;;;;;;17.42;11.23;;;;;;;11.74;100.00;97128.78;5087287;28;20447;-79
2023/10/24 08:38:22;;;;;;;12.00;9.50;;;;;;;11.75;100.00;97127.00;5082933;28;20207;-77
2023/10/24 08:40:48;;;;;;;12.13;9.43;;;;;;;11.77;100.00;97132.97;5072671;28;20680;-82
2023/10/24 08:43:16;;;;;;;11.57;8.50;;;;;;;11.77;100.00;97133.84;5076259;28;20203;-81
2023/10/24 08:45:43;;;;;;;11.50;8.50;;;;;;;11.81;100.00;97142.34;5075625;28;20216;-80
2023/10/24 08:48:11;;;;;;;12.40;9.13;;;;;;;11.80;100.00;97152.06;5075013;28;20238;-80
2023/10/24 08:50:41;;;;;;;11.87;9.27;;;;;;;11.80;100.00;97148.59;5075339;28;20556;-80
2023/10/24 08:53:07;;;;;;;12.97;8.90;;;;;;;11.80;100.00;97159.19;5075269;28;20230;-80
2023/10/24 08:55:36;;;;;;;11.67;8.73;;;;;;;11.78;100.00;97161.13;5075724;28;20681;-80
2023/10/24 08:58:03;;;;;;;13.43;9.30;;;;;;;11.76;100.00;97163.06;5075594;28;20203;-80
2023/10/24 09:00:30;;;;;;;11.53;9.10;;;;;;;11.76;100.00;97161.28;5075485;28;20207;-80
2023/10/24 09:02:57;;;;;;;10.87;9.00;;;;;;;11.77;100.00;97154.16;5073821;28;20208;-81
2023/10/24 09:05:27;;;;;;;11.70;8.87;;;;;;;11.78;100.00;97158.47;5075220;28;20205;-81
2023/10/24 09:07:56;;;;;;;11.23;8.53;;;;;;;11.79;100.00;97161.00;5075389;28;20229;-80
2023/10/24 09:10:22;;;;;;;12.43;8.73;;;;;;;11.79;100.00;97157.53;5079321;28;20264;-80
2023/10/24 09:12:53;;;;;;;12.67;8.90;;;;;;;11.81;100.00;97153.75;5078878;28;20227;-80
2023/10/24 09:15:19;;;;;;;11.50;8.90;;;;;;;11.84;100.00;97163.22;5078367;28;20285;-80
2023/10/24 09:17:46;;;;;;;13.17;9.50;;;;;;;11.83;100.00;97169.50;5075951;28;20211;-80
2023/10/24 09:20:13;;;;;;;11.37;8.90;;;;;;;11.88;100.00;97162.84;5076213;28;20221;-80
2023/10/24 09:22:42;;;;;;;11.33;8.90;;;;;;;11.89;100.00;97163.66;5074824;28;20223;-80
2023/10/24 09:25:09;;;;;;;9.57;8.20;;;;;;;11.88;100.00;97159.34;5075916;28;20214;-80
2023/10/24 09:27:36;;;;;;;13.33;9.23;;;;;;;11.90;100.00;97146.78;5076087;28;20239;-80
2023/10/24 09:30:10;;;;;;;12.17;9.57;;;;;;;11.96;100.00;97159.47;5075448;28;20207;-80
2023/10/24 09:32:39;;;;;;;11.43;9.60;;;;;;;11.97;100.00;97155.84;5074772;28;20225;-80
2023/10/24 09:35:07;;;;;;;13.70;8.97;;;;;;;12.03;100.00;97155.28;5075036;28;20211;-80
2023/10/24 09:37:33;;;;;;;15.67;9.67;;;;;;;12.02;100.00;97164.22;5075710;28;20211;-80
2023/10/24 09:40:03;;;;;;;11.17;8.47;;;;;;;12.03;100.00;97155.28;5074597;28;20641;-82
2023/10/24 09:42:31;;;;;;;12.50;9.17;;;;;;;12.03;100.00;97156.16;5075050;28;20234;-80
2023/10/24 09:45:00;;;;;;;14.23;9.40;;;;;;;12.02;100.00;97159.78;5072714;28;20650;-80
2023/10/24 09:47:27;;;;;;;11.80;9.03;;;;;;;12.08;100.00;97163.66;5073869;28;20331;-80
2023/10/24 09:49:55;;;;;;;14.20;10.07;;;;;;;12.07;100.00;97162.84;5075171;28;20210;-79
2023/10/24 09:52:23;;;;;;;10.67;9.00;;;;;;;12.07;100.00;97159.34;5074161;28;20594;-80
2023/10/24 09:54:51;;;;;;;13.43;10.20;;;;;;;12.14;100.00;97163.13;5074827;28;20211;-79
2023/10/24 09:57:21;;;;;;;13.27;9.30;;;;;;;12.08;100.00;97159.22;5075327;28;20203;-81
2023/10/24 09:59:49;;;;;;;13.60;9.57;;;;;;;12.08;100.00;97159.22;5078011;28;20797;-80
2023/10/24 10:02:19;;;;;;;14.17;10.07;;;;;;;12.13;100.00;97145.56;5074452;28;20653;-79
2023/10/24 10:04:47;;;;;;;10.67;9.13;;;;;;;12.17;100.00;97144.31;5074523;28;20219;-80
2023/10/24 10:07:16;;;;;;;10.33;9.03;;;;;;;12.20;100.00;97146.66;5074353;28;20239;-80
2023/10/24 10:09:47;;;;;;;11.47;9.63;;;;;;;12.22;100.00;97137.59;5074438;28;20578;-80
2023/10/24 10:12:17;;;;;;;11.60;9.60;;;;;;;12.23;100.00;97141.91;5074994;28;20285;-80
2023/10/24 10:15:09;;;;;;;11.53;9.70;;;;;;;12.25;100.00;97137.34;5076178;28;20213;-80
2023/10/24 10:17:45;;;;;;;13.07;10.17;;;;;;;12.22;100.00;97131.50;5076545;28;20230;-82
2023/10/24 10:20:29;;;;;;;12.67;9.13;;;;;;;12.24;100.00;97137.47;5078077;28;20278;-80
2023/10/24 10:23:14;;;;;;;11.53;10.10;;;;;;;12.25;100.00;97125.91;5076596;28;20237;-80
2023/10/24 10:25:58;;;;;;;12.13;10.07;;;;;;;12.24;100.00;97121.56;5076136;28;20229;-80
2023/10/24 10:28:41;;;;;;;10.90;9.10;;;;;;;12.28;100.00;97115.03;5075918;28;20732;-81
2023/10/24 10:31:29;;;;;;;13.23;10.40;;;;;;;12.25;100.00;97112.66;5078402;28;20437;-78
2023/10/24 10:33:57;;;;;;;10.57;9.03;;;;;;;12.26;100.00;97104.56;5074270;28;20248;-79
2023/10/24 10:36:25;;;;;;;14.33;9.40;;;;;;;12.32;100.00;97103.16;5073827;28;20213;-80
2023/10/24 10:38:54;;;;;;;12.60;9.63;;;;;;;12.33;100.00;97094.22;5077864;28;20200;-77
2023/10/24 10:41:42;;;;;;;12.67;9.43;;;;;;;12.34;100.00;97101.22;5086152;28;20231;-80
2023/10/24 10:44:34;;;;;;;11.77;9.17;;;;;;;12.31;100.00;97096.19;5093509;28;20289;-79
2023/10/24 10:47:05;;;;;;;13.87;9.73;;;;;;;12.28;100.00;97096.50;5094959;28;20241;-81
2023/10/24 10:49:40;;;;;;;10.37;8.60;;;;;;;12.28;100.00;97092.00;5094823;28;20217;-80
2023/10/24 10:52:12;;;;;;;12.00;9.23;;;;;;;12.34;100.00;97102.03;5093020;28;20241;-80
2023/10/24 10:54:49;;;;;;;11.60;9.50;;;;;;;12.36;100.00;97096.59;5094317;28;20218;-81
2023/10/24 10:57:23;;;;;;;11.83;8.87;;;;;;;12.38;100.00;97097.28;5093666;28;20214;-79
2023/10/24 10:59:58;;;;;;;11.17;8.93;;;;;;;12.40;100.00;97090.88;5094462;28;20198;-80
2023/10/24 11:02:47;;;;;;;11.57;8.50;;;;;;;12.44;100.00;97080.81;5093580;28;20237;-80
2023/10/24 11:05:50;;;;;;;11.77;9.83;;;;;;;12.47;100.00;97077.91;5094564;28;20561;-80
2023/10/24 11:08:19;;;;;;;11.20;9.90;;;;;;;12.50;100.00;97074.94;5090301;28;20284;-80
2023/10/24 11:10:55;;;;;;;12.40;9.63;;;;;;;12.50;100.00;97069.66;5093405;28;20214;-79
2023/10/24 11:13:33;;;;;;;14.60;10.30;;;;;;;12.50;100.00;97081.09;5093315;28;20202;-79
2023/10/24 11:16:02;;;;;;;13.87;10.87;;;;;;;12.50;100.00;97075.81;5104171;28;20279;-80
2023/10/24 11:18:32;;;;;;;15.43;10.57;;;;;;;12.49;100.00;97074.13;5105169;28;20202;-80
2023/10/24 11:20:59;;;;;;;12.60;10.60;;;;;;;12.45;100.00;97077.19;5088509;28;20268;-80
2023/10/24 11:23:26;;;;;;;13.77;10.87;;;;;;;12.39;100.00;97064.50;5076795;28;20217;-82
2023/10/24 11:25:53;;;;;;;17.30;11.93;;;;;;;12.41;100.00;97070.53;5081879;28;20307;-80